sensor_id;sensor_type;location;lat;lon;timestamp;temperature;humidity
46706;DHT22;33519;50.712;7.124;2023-05-18T00:01:23;8.20;99.90
46706;DHT22;33519;50.712;7.124;2023-05-18T00:03:49;8.10;99.90
46706;DHT22;33519;50.712;7.124;2023-05-18T00:06:19;8.10;99.90
46706;DHT22;33519;50.712;7.124;2023-05-18T00:08:47;7.90;99.90
46706;DHT22;33519;50.712;7.124;2023-05-18T00:11:14;7.90;99.90
46706;DHT22;33519;50.712;7.124;2023-05-18T00:13:41;7.80;99.90
46706;DHT22;33519;50.712;7.124;2023-05-18T00:16:07;7.70;99.90
46706;DHT22;33519;50.712;7.124;2023-05-18T00:18:34;7.60;99.90
46706;DHT22;33519;50.712;7.124;2023-05-18T00:23:31;7.60;99.90
46706;DHT22;33519;50.712;7.124;2023-05-18T00:25:59;7.60;99.90
46706;DHT22;33519;50.712;7.124;2023-05-18T00:28:26;7.60;99.90
46706;DHT22;33519;50.712;7.124;2023-05-18T00:30:53;7.50;99.90
46706;DHT22;33519;50.712;7.124;2023-05-18T00:33:20;7.60;99.90
46706;DHT22;33519;50.712;7.124;2023-05-18T00:35:47;7.50;99.90
46706;DHT22;33519;50.712;7.124;2023-05-18T00:38:13;7.40;99.90
46706;DHT22;33519;50.712;7.124;2023-05-18T00:40:43;7.40;99.90
46706;DHT22;33519;50.712;7.124;2023-05-18T00:43:09;7.40;99.90
46706;DHT22;33519;50.712;7.124;2023-05-18T00:45:36;7.40;99.90
46706;DHT22;33519;50.712;7.124;2023-05-18T00:48:03;7.40;99.90
46706;DHT22;33519;50.712;7.124;2023-05-18T00:50:30;7.30;99.90
46706;DHT22;33519;50.712;7.124;2023-05-18T00:52:57;7.20;99.90
46706;DHT22;33519;50.712;7.124;2023-05-18T00:55:24;7.20;99.90
46706;DHT22;33519;50.712;7.124;2023-05-18T00:57:53;7.20;99.90
46706;DHT22;33519;50.712;7.124;2023-05-18T01:00:21;7.10;99.90
46706;DHT22;33519;50.712;7.124;2023-05-18T01:02:48;7.10;99.90
46706;DHT22;33519;50.712;7.124;2023-05-18T01:05:16;7.00;99.90
46706;DHT22;33519;50.712;7.124;2023-05-18T01:07:43;7.00;99.90
46706;DHT22;33519;50.712;7.124;2023-05-18T01:10:10;7.00;99.90
46706;DHT22;33519;50.712;7.124;2023-05-18T01:12:42;7.00;99.90
46706;DHT22;33519;50.712;7.124;2023-05-18T01:20:31;6.80;99.90
46706;DHT22;33519;50.712;7.124;2023-05-18T01:28:01;6.60;99.90
46706;DHT22;33519;50.712;7.124;2023-05-18T01:30:32;6.60;99.90
46706;DHT22;33519;50.712;7.124;2023-05-18T01:32:59;6.60;99.90
46706;DHT22;33519;50.712;7.124;2023-05-18T01:35:26;6.50;99.90
46706;DHT22;33519;50.712;7.124;2023-05-18T01:37:53;6.40;99.90
46706;DHT22;33519;50.712;7.124;2023-05-18T01:40:20;6.50;99.90
46706;DHT22;33519;50.712;7.124;2023-05-18T01:42:48;6.50;99.90
46706;DHT22;33519;50.712;7.124;2023-05-18T01:45:20;6.40;99.90
46706;DHT22;33519;50.712;7.124;2023-05-18T01:47:47;6.30;99.90
46706;DHT22;33519;50.712;7.124;2023-05-18T01:50:18;6.40;99.90
46706;DHT22;33519;50.712;7.124;2023-05-18T01:52:49;6.40;99.90
46706;DHT22;33519;50.712;7.124;2023-05-18T01:55:17;6.30;99.90
46706;DHT22;33519;50.712;7.124;2023-05-18T01:57:45;6.30;99.90
46706;DHT22;33519;50.712;7.124;2023-05-18T02:00:13;6.20;99.90
46706;DHT22;33519;50.712;7.124;2023-05-18T02:02:42;6.20;99.90
46706;DHT22;33519;50.712;7.124;2023-05-18T02:05:09;6.10;99.90
46706;DHT22;33519;50.712;7.124;2023-05-18T02:07:38;6.10;99.90
46706;DHT22;33519;50.712;7.124;2023-05-18T02:10:05;6.10;99.90
46706;DHT22;33519;50.712;7.124;2023-05-18T02:12:32;6.00;99.90
46706;DHT22;33519;50.712;7.124;2023-05-18T02:14:59;6.10;99.90
46706;DHT22;33519;50.712;7.124;2023-05-18T02:17:34;6.00;99.90
46706;DHT22;33519;50.712;7.124;2023-05-18T02:20:04;6.00;99.90
46706;DHT22;33519;50.712;7.124;2023-05-18T02:22:34;5.90;99.90
46706;DHT22;33519;50.712;7.124;2023-05-18T02:25:01;5.90;99.90
46706;DHT22;33519;50.712;7.124;2023-05-18T02:27:28;5.90;99.90
46706;DHT22;33519;50.712;7.124;2023-05-18T02:29:54;5.80;99.90
46706;DHT22;33519;50.712;7.124;2023-05-18T02:32:22;5.90;99.90
46706;DHT22;33519;50.712;7.124;2023-05-18T02:34:51;5.90;99.90
46706;DHT22;33519;50.712;7.124;2023-05-18T02:37:18;5.90;99.90
46706;DHT22;33519;50.712;7.124;2023-05-18T02:39:45;6.00;99.90
46706;DHT22;33519;50.712;7.124;2023-05-18T02:42:11;6.10;99.90
46706;DHT22;33519;50.712;7.124;2023-05-18T02:44:39;6.10;99.90
46706;DHT22;33519;50.712;7.124;2023-05-18T02:47:07;6.10;99.90
46706;DHT22;33519;50.712;7.124;2023-05-18T02:49:33;6.10;99.90
46706;DHT22;33519;50.712;7.124;2023-05-18T02:52:00;6.10;99.90
46706;DHT22;33519;50.712;7.124;2023-05-18T02:54:27;6.10;99.90
46706;DHT22;33519;50.712;7.124;2023-05-18T02:56:53;6.10;99.90
46706;DHT22;33519;50.712;7.124;2023-05-18T02:59:22;6.10;99.90
46706;DHT22;33519;50.712;7.124;2023-05-18T03:01:49;6.10;99.90
46706;DHT22;33519;50.712;7.124;2023-05-18T03:04:16;6.10;99.90
46706;DHT22;33519;50.712;7.124;2023-05-18T03:06:42;6.00;99.90
46706;DHT22;33519;50.712;7.124;2023-05-18T03:09:11;6.00;99.90
46706;DHT22;33519;50.712;7.124;2023-05-18T03:11:38;6.00;99.90
46706;DHT22;33519;50.712;7.124;2023-05-18T03:14:05;5.90;99.90
46706;DHT22;33519;50.712;7.124;2023-05-18T03:16:31;5.90;99.90
46706;DHT22;33519;50.712;7.124;2023-05-18T03:18:58;5.90;99.90
46706;DHT22;33519;50.712;7.124;2023-05-18T03:21:27;5.90;99.90
46706;DHT22;33519;50.712;7.124;2023-05-18T03:24:03;5.90;99.90
46706;DHT22;33519;50.712;7.124;2023-05-18T03:26:30;5.90;99.90
46706;DHT22;33519;50.712;7.124;2023-05-18T03:28:57;5.80;99.90
46706;DHT22;33519;50.712;7.124;2023-05-18T03:31:24;5.80;99.90
46706;DHT22;33519;50.712;7.124;2023-05-18T03:33:51;5.70;99.90
46706;DHT22;33519;50.712;7.124;2023-05-18T03:36:17;5.70;99.90
46706;DHT22;33519;50.712;7.124;2023-05-18T03:38:44;5.60;99.90
46706;DHT22;33519;50.712;7.124;2023-05-18T03:41:11;5.60;99.90
46706;DHT22;33519;50.712;7.124;2023-05-18T03:43:38;5.60;99.90
46706;DHT22;33519;50.712;7.124;2023-05-18T03:46:04;5.50;99.90
46706;DHT22;33519;50.712;7.124;2023-05-18T03:48:31;5.50;99.90
46706;DHT22;33519;50.712;7.124;2023-05-18T03:50:58;5.50;99.90
46706;DHT22;33519;50.712;7.124;2023-05-18T03:53:24;5.40;99.90
46706;DHT22;33519;50.712;7.124;2023-05-18T03:55:51;5.40;99.90
46706;DHT22;33519;50.712;7.124;2023-05-18T03:58:18;5.40;99.90
46706;DHT22;33519;50.712;7.124;2023-05-18T04:00:48;5.30;99.90
46706;DHT22;33519;50.712;7.124;2023-05-18T04:03:15;5.30;99.90
46706;DHT22;33519;50.712;7.124;2023-05-18T04:05:41;5.40;99.90
46706;DHT22;33519;50.712;7.124;2023-05-18T04:08:08;5.40;99.90
46706;DHT22;33519;50.712;7.124;2023-05-18T04:10:42;5.40;99.90
46706;DHT22;33519;50.712;7.124;2023-05-18T04:13:09;5.40;99.90
46706;DHT22;33519;50.712;7.124;2023-05-18T04:15:36;5.40;99.90
46706;DHT22;33519;50.712;7.124;2023-05-18T04:18:03;5.40;99.90
46706;DHT22;33519;50.712;7.124;2023-05-18T04:20:29;5.30;99.90
46706;DHT22;33519;50.712;7.124;2023-05-18T04:22:56;5.30;99.90
46706;DHT22;33519;50.712;7.124;2023-05-18T04:25:23;5.30;99.90
46706;DHT22;33519;50.712;7.124;2023-05-18T04:27:54;5.20;99.90
46706;DHT22;33519;50.712;7.124;2023-05-18T04:30:21;5.20;99.90
46706;DHT22;33519;50.712;7.124;2023-05-18T04:32:48;5.30;99.90
46706;DHT22;33519;50.712;7.124;2023-05-18T04:35:15;5.50;99.90
46706;DHT22;33519;50.712;7.124;2023-05-18T04:37:43;5.40;99.90
46706;DHT22;33519;50.712;7.124;2023-05-18T04:40:11;5.50;99.90
46706;DHT22;33519;50.712;7.124;2023-05-18T04:42:43;5.50;99.90
46706;DHT22;33519;50.712;7.124;2023-05-18T04:45:14;5.50;99.90
46706;DHT22;33519;50.712;7.124;2023-05-18T04:47:41;5.60;99.90
46706;DHT22;33519;50.712;7.124;2023-05-18T04:50:08;5.70;99.90
46706;DHT22;33519;50.712;7.124;2023-05-18T04:52:35;5.80;99.90
46706;DHT22;33519;50.712;7.124;2023-05-18T04:55:02;5.80;99.90
46706;DHT22;33519;50.712;7.124;2023-05-18T04:57:29;5.90;99.90
46706;DHT22;33519;50.712;7.124;2023-05-18T04:59:56;6.00;99.90
46706;DHT22;33519;50.712;7.124;2023-05-18T05:02:23;6.00;99.90
46706;DHT22;33519;50.712;7.124;2023-05-18T05:04:50;6.10;99.90
46706;DHT22;33519;50.712;7.124;2023-05-18T05:07:16;6.10;99.90
46706;DHT22;33519;50.712;7.124;2023-05-18T05:09:43;6.20;99.90
46706;DHT22;33519;50.712;7.124;2023-05-18T05:12:10;6.20;99.90
46706;DHT22;33519;50.712;7.124;2023-05-18T05:14:36;6.20;99.90
46706;DHT22;33519;50.712;7.124;2023-05-18T05:17:03;6.20;99.90
46706;DHT22;33519;50.712;7.124;2023-05-18T05:19:29;6.30;99.90
46706;DHT22;33519;50.712;7.124;2023-05-18T05:21:56;6.30;99.90
46706;DHT22;33519;50.712;7.124;2023-05-18T05:24:23;6.40;99.90
46706;DHT22;33519;50.712;7.124;2023-05-18T05:26:49;6.50;99.90
46706;DHT22;33519;50.712;7.124;2023-05-18T05:29:17;6.60;99.90
46706;DHT22;33519;50.712;7.124;2023-05-18T05:31:45;6.50;99.90
46706;DHT22;33519;50.712;7.124;2023-05-18T05:34:11;6.60;99.90
46706;DHT22;33519;50.712;7.124;2023-05-18T05:36:38;6.60;99.90
46706;DHT22;33519;50.712;7.124;2023-05-18T05:39:05;6.70;99.90
46706;DHT22;33519;50.712;7.124;2023-05-18T05:41:32;6.80;99.90
46706;DHT22;33519;50.712;7.124;2023-05-18T05:43:58;6.80;99.90
46706;DHT22;33519;50.712;7.124;2023-05-18T05:46:25;6.90;99.90
46706;DHT22;33519;50.712;7.124;2023-05-18T05:48:51;6.90;99.90
46706;DHT22;33519;50.712;7.124;2023-05-18T05:51:18;6.90;99.90
46706;DHT22;33519;50.712;7.124;2023-05-18T05:53:45;6.90;99.90
46706;DHT22;33519;50.712;7.124;2023-05-18T05:56:12;7.00;99.90
46706;DHT22;33519;50.712;7.124;2023-05-18T05:58:39;7.00;99.90
46706;DHT22;33519;50.712;7.124;2023-05-18T06:01:07;7.10;99.90
46706;DHT22;33519;50.712;7.124;2023-05-18T06:03:33;7.40;99.90
46706;DHT22;33519;50.712;7.124;2023-05-18T06:06:01;7.40;99.90
46706;DHT22;33519;50.712;7.124;2023-05-18T06:08:28;7.30;99.90
46706;DHT22;33519;50.712;7.124;2023-05-18T06:10:54;7.30;99.90
46706;DHT22;33519;50.712;7.124;2023-05-18T06:13:21;7.40;99.90
46706;DHT22;33519;50.712;7.124;2023-05-18T06:15:48;7.50;99.90
46706;DHT22;33519;50.712;7.124;2023-05-18T06:18:14;7.50;99.90
46706;DHT22;33519;50.712;7.124;2023-05-18T06:20:41;7.40;99.90
46706;DHT22;33519;50.712;7.124;2023-05-18T06:23:07;7.50;99.90
46706;DHT22;33519;50.712;7.124;2023-05-18T06:25:34;7.50;99.90
46706;DHT22;33519;50.712;7.124;2023-05-18T06:28:01;7.60;99.90
46706;DHT22;33519;50.712;7.124;2023-05-18T06:30:28;7.70;99.90
46706;DHT22;33519;50.712;7.124;2023-05-18T06:32:54;7.80;99.90
46706;DHT22;33519;50.712;7.124;2023-05-18T06:35:21;7.80;99.90
46706;DHT22;33519;50.712;7.124;2023-05-18T06:37:49;7.90;99.90
46706;DHT22;33519;50.712;7.124;2023-05-18T06:40:16;8.00;99.90
46706;DHT22;33519;50.712;7.124;2023-05-18T06:42:42;8.10;99.90
46706;DHT22;33519;50.712;7.124;2023-05-18T06:45:09;8.10;99.90
46706;DHT22;33519;50.712;7.124;2023-05-18T06:47:36;8.20;99.90
46706;DHT22;33519;50.712;7.124;2023-05-18T06:50:03;8.20;99.90
46706;DHT22;33519;50.712;7.124;2023-05-18T06:52:29;8.40;99.90
46706;DHT22;33519;50.712;7.124;2023-05-18T06:54:56;8.50;99.90
46706;DHT22;33519;50.712;7.124;2023-05-18T06:57:23;8.60;99.90
46706;DHT22;33519;50.712;7.124;2023-05-18T06:59:49;8.70;99.90
46706;DHT22;33519;50.712;7.124;2023-05-18T07:02:19;8.70;99.90
46706;DHT22;33519;50.712;7.124;2023-05-18T07:04:46;8.70;99.90
46706;DHT22;33519;50.712;7.124;2023-05-18T07:07:14;8.90;99.90
46706;DHT22;33519;50.712;7.124;2023-05-18T07:09:40;9.10;99.90
46706;DHT22;33519;50.712;7.124;2023-05-18T07:12:08;9.20;99.90
46706;DHT22;33519;50.712;7.124;2023-05-18T07:14:35;9.40;99.90
46706;DHT22;33519;50.712;7.124;2023-05-18T07:17:02;9.50;99.90
46706;DHT22;33519;50.712;7.124;2023-05-18T07:19:29;9.50;99.90
46706;DHT22;33519;50.712;7.124;2023-05-18T07:21:56;9.50;99.90
46706;DHT22;33519;50.712;7.124;2023-05-18T07:24:24;9.50;99.90
46706;DHT22;33519;50.712;7.124;2023-05-18T07:26:51;9.50;99.90
46706;DHT22;33519;50.712;7.124;2023-05-18T07:29:17;9.70;99.90
46706;DHT22;33519;50.712;7.124;2023-05-18T07:31:44;9.80;99.90
46706;DHT22;33519;50.712;7.124;2023-05-18T07:34:11;9.90;99.90
46706;DHT22;33519;50.712;7.124;2023-05-18T07:36:37;10.00;99.90
46706;DHT22;33519;50.712;7.124;2023-05-18T07:39:04;10.00;99.90
46706;DHT22;33519;50.712;7.124;2023-05-18T07:41:31;10.30;99.90
46706;DHT22;33519;50.712;7.124;2023-05-18T07:43:57;10.40;99.90
46706;DHT22;33519;50.712;7.124;2023-05-18T07:46:24;10.50;99.90
46706;DHT22;33519;50.712;7.124;2023-05-18T07:48:51;10.50;99.90
46706;DHT22;33519;50.712;7.124;2023-05-18T07:51:17;10.60;99.90
46706;DHT22;33519;50.712;7.124;2023-05-18T07:53:44;10.80;99.90
46706;DHT22;33519;50.712;7.124;2023-05-18T07:56:14;10.60;99.90
46706;DHT22;33519;50.712;7.124;2023-05-18T07:58:40;10.50;99.90
46706;DHT22;33519;50.712;7.124;2023-05-18T08:01:07;10.60;99.90
46706;DHT22;33519;50.712;7.124;2023-05-18T08:03:33;10.60;99.90
46706;DHT22;33519;50.712;7.124;2023-05-18T08:06:00;10.60;99.90
46706;DHT22;33519;50.712;7.124;2023-05-18T08:08:27;11.00;99.90
46706;DHT22;33519;50.712;7.124;2023-05-18T08:10:54;11.20;99.90
46706;DHT22;33519;50.712;7.124;2023-05-18T08:13:20;11.00;99.90
46706;DHT22;33519;50.712;7.124;2023-05-18T08:15:47;11.10;99.90
46706;DHT22;33519;50.712;7.124;2023-05-18T08:18:24;11.30;99.90
46706;DHT22;33519;50.712;7.124;2023-05-18T08:20:51;11.60;99.90
46706;DHT22;33519;50.712;7.124;2023-05-18T08:23:19;11.70;99.90
46706;DHT22;33519;50.712;7.124;2023-05-18T08:25:46;12.00;99.90
46706;DHT22;33519;50.712;7.124;2023-05-18T08:28:13;12.00;99.90
46706;DHT22;33519;50.712;7.124;2023-05-18T08:30:39;12.00;99.90
46706;DHT22;33519;50.712;7.124;2023-05-18T08:33:06;12.30;99.90
46706;DHT22;33519;50.712;7.124;2023-05-18T08:35:33;12.50;99.90
46706;DHT22;33519;50.712;7.124;2023-05-18T08:38:00;12.60;99.90
46706;DHT22;33519;50.712;7.124;2023-05-18T08:40:36;12.70;99.90
46706;DHT22;33519;50.712;7.124;2023-05-18T08:43:10;12.90;99.90
46706;DHT22;33519;50.712;7.124;2023-05-18T08:45:44;12.80;99.90
46706;DHT22;33519;50.712;7.124;2023-05-18T08:48:14;12.70;99.90
46706;DHT22;33519;50.712;7.124;2023-05-18T08:50:41;12.50;99.90
46706;DHT22;33519;50.712;7.124;2023-05-18T08:53:09;12.70;99.90
46706;DHT22;33519;50.712;7.124;2023-05-18T08:55:37;12.70;99.90
46706;DHT22;33519;50.712;7.124;2023-05-18T08:58:06;12.90;99.90
46706;DHT22;33519;50.712;7.124;2023-05-18T09:00:33;13.20;99.90
46706;DHT22;33519;50.712;7.124;2023-05-18T09:03:01;13.50;99.90
46706;DHT22;33519;50.712;7.124;2023-05-18T09:05:29;13.70;99.80
46706;DHT22;33519;50.712;7.124;2023-05-18T09:07:57;14.00;98.90
46706;DHT22;33519;50.712;7.124;2023-05-18T09:10:23;14.40;98.80
46706;DHT22;33519;50.712;7.124;2023-05-18T09:12:51;14.40;98.20
46706;DHT22;33519;50.712;7.124;2023-05-18T09:15:20;14.30;98.60
46706;DHT22;33519;50.712;7.124;2023-05-18T09:17:47;14.60;98.00
46706;DHT22;33519;50.712;7.124;2023-05-18T09:20:14;14.30;97.00
46706;DHT22;33519;50.712;7.124;2023-05-18T09:22:41;14.60;98.40
46706;DHT22;33519;50.712;7.124;2023-05-18T09:25:09;15.00;96.90
46706;DHT22;33519;50.712;7.124;2023-05-18T09:27:36;15.50;93.80
46706;DHT22;33519;50.712;7.124;2023-05-18T09:30:03;16.40;93.10
46706;DHT22;33519;50.712;7.124;2023-05-18T09:32:33;18.40;87.00
46706;DHT22;33519;50.712;7.124;2023-05-18T09:35:04;19.40;81.10
46706;DHT22;33519;50.712;7.124;2023-05-18T09:37:32;20.00;76.70
46706;DHT22;33519;50.712;7.124;2023-05-18T09:39:59;20.50;72.60
46706;DHT22;33519;50.712;7.124;2023-05-18T09:42:44;19.80;74.00
46706;DHT22;33519;50.712;7.124;2023-05-18T09:47:44;20.50;70.20
46706;DHT22;33519;50.712;7.124;2023-05-18T09:50:11;21.20;68.20
46706;DHT22;33519;50.712;7.124;2023-05-18T09:55:11;21.10;62.40
46706;DHT22;33519;50.712;7.124;2023-05-18T09:57:47;20.60;63.80
46706;DHT22;33519;50.712;7.124;2023-05-18T10:00:14;21.80;64.00
46706;DHT22;33519;50.712;7.124;2023-05-18T10:02:41;21.10;66.50
46706;DHT22;33519;50.712;7.124;2023-05-18T10:05:18;21.30;65.30
46706;DHT22;33519;50.712;7.124;2023-05-18T10:07:45;21.20;63.30
46706;DHT22;33519;50.712;7.124;2023-05-18T10:10:13;19.80;64.00
46706;DHT22;33519;50.712;7.124;2023-05-18T10:12:42;20.40;63.50
46706;DHT22;33519;50.712;7.124;2023-05-18T10:15:09;21.80;60.60
46706;DHT22;33519;50.712;7.124;2023-05-18T10:17:39;24.10;59.50
46706;DHT22;33519;50.712;7.124;2023-05-18T10:20:07;23.30;56.50
46706;DHT22;33519;50.712;7.124;2023-05-18T10:22:35;21.40;60.10
46706;DHT22;33519;50.712;7.124;2023-05-18T10:25:04;22.00;59.10
46706;DHT22;33519;50.712;7.124;2023-05-18T10:27:33;23.70;57.20
46706;DHT22;33519;50.712;7.124;2023-05-18T10:29:59;24.50;54.00
46706;DHT22;33519;50.712;7.124;2023-05-18T10:32:29;22.80;54.60
46706;DHT22;33519;50.712;7.124;2023-05-18T10:34:56;22.90;56.10
46706;DHT22;33519;50.712;7.124;2023-05-18T10:37:24;22.70;56.40
46706;DHT22;33519;50.712;7.124;2023-05-18T10:39:51;23.90;53.90
46706;DHT22;33519;50.712;7.124;2023-05-18T10:42:20;25.10;52.90
46706;DHT22;33519;50.712;7.124;2023-05-18T10:44:47;26.70;51.20
46706;DHT22;33519;50.712;7.124;2023-05-18T10:47:15;27.20;50.70
46706;DHT22;33519;50.712;7.124;2023-05-18T10:49:43;26.50;51.20
46706;DHT22;33519;50.712;7.124;2023-05-18T10:52:11;27.90;50.00
46706;DHT22;33519;50.712;7.124;2023-05-18T10:54:38;27.90;49.40
46706;DHT22;33519;50.712;7.124;2023-05-18T10:57:05;29.00;48.40
46706;DHT22;33519;50.712;7.124;2023-05-18T10:59:35;28.40;47.80
46706;DHT22;33519;50.712;7.124;2023-05-18T11:02:09;27.70;48.10
46706;DHT22;33519;50.712;7.124;2023-05-18T11:04:37;26.50;47.00
46706;DHT22;33519;50.712;7.124;2023-05-18T11:07:04;27.50;47.40
46706;DHT22;33519;50.712;7.124;2023-05-18T11:09:35;27.10;47.80
46706;DHT22;33519;50.712;7.124;2023-05-18T11:12:01;27.70;47.30
46706;DHT22;33519;50.712;7.124;2023-05-18T11:14:29;27.80;46.80
46706;DHT22;33519;50.712;7.124;2023-05-18T11:17:18;27.20;46.10
46706;DHT22;33519;50.712;7.124;2023-05-18T11:25:37;28.50;45.30
46706;DHT22;33519;50.712;7.124;2023-05-18T11:28:04;27.60;45.50
46706;DHT22;33519;50.712;7.124;2023-05-18T11:33:08;26.90;45.20
46706;DHT22;33519;50.712;7.124;2023-05-18T11:35:54;27.70;46.20
46706;DHT22;33519;50.712;7.124;2023-05-18T11:38:21;27.20;46.70
46706;DHT22;33519;50.712;7.124;2023-05-18T11:40:48;25.40;48.20
46706;DHT22;33519;50.712;7.124;2023-05-18T11:43:19;24.80;49.30
46706;DHT22;33519;50.712;7.124;2023-05-18T11:45:52;24.50;49.40
46706;DHT22;33519;50.712;7.124;2023-05-18T11:48:24;23.60;50.00
46706;DHT22;33519;50.712;7.124;2023-05-18T11:50:51;23.30;51.50
46706;DHT22;33519;50.712;7.124;2023-05-18T11:53:18;23.70;51.00
46706;DHT22;33519;50.712;7.124;2023-05-18T11:55:45;23.00;52.60
46706;DHT22;33519;50.712;7.124;2023-05-18T11:58:12;24.20;51.40
46706;DHT22;33519;50.712;7.124;2023-05-18T12:00:44;24.70;50.10
46706;DHT22;33519;50.712;7.124;2023-05-18T12:03:11;25.10;50.70
46706;DHT22;33519;50.712;7.124;2023-05-18T12:05:39;25.50;49.10
46706;DHT22;33519;50.712;7.124;2023-05-18T12:08:07;23.80;50.70
46706;DHT22;33519;50.712;7.124;2023-05-18T12:10:34;23.70;50.90
46706;DHT22;33519;50.712;7.124;2023-05-18T12:13:05;23.80;51.80
46706;DHT22;33519;50.712;7.124;2023-05-18T12:15:31;25.00;50.80
46706;DHT22;33519;50.712;7.124;2023-05-18T12:17:58;25.10;50.10
46706;DHT22;33519;50.712;7.124;2023-05-18T12:20:25;26.10;48.80
46706;DHT22;33519;50.712;7.124;2023-05-18T12:22:54;25.70;47.70
46706;DHT22;33519;50.712;7.124;2023-05-18T12:25:24;24.40;48.90
46706;DHT22;33519;50.712;7.124;2023-05-18T12:27:51;24.40;49.40
46706;DHT22;33519;50.712;7.124;2023-05-18T12:30:19;25.10;50.10
46706;DHT22;33519;50.712;7.124;2023-05-18T12:32:47;23.80;48.30
46706;DHT22;33519;50.712;7.124;2023-05-18T12:35:14;23.40;50.10
46706;DHT22;33519;50.712;7.124;2023-05-18T12:37:41;23.70;51.50
46706;DHT22;33519;50.712;7.124;2023-05-18T12:40:14;24.30;51.00
46706;DHT22;33519;50.712;7.124;2023-05-18T12:42:51;24.00;51.10
46706;DHT22;33519;50.712;7.124;2023-05-18T12:45:21;23.60;52.10
46706;DHT22;33519;50.712;7.124;2023-05-18T12:47:48;22.10;53.00
46706;DHT22;33519;50.712;7.124;2023-05-18T12:50:20;23.50;52.00
46706;DHT22;33519;50.712;7.124;2023-05-18T12:52:47;23.60;51.60
46706;DHT22;33519;50.712;7.124;2023-05-18T12:55:17;24.30;51.40
46706;DHT22;33519;50.712;7.124;2023-05-18T12:58:02;24.40;50.50
46706;DHT22;33519;50.712;7.124;2023-05-18T13:00:33;25.00;49.90
46706;DHT22;33519;50.712;7.124;2023-05-18T13:03:10;23.50;50.00
46706;DHT22;33519;50.712;7.124;2023-05-18T13:05:41;24.30;50.60
46706;DHT22;33519;50.712;7.124;2023-05-18T13:08:13;24.90;50.20
46706;DHT22;33519;50.712;7.124;2023-05-18T13:10:42;24.00;49.60
46706;DHT22;33519;50.712;7.124;2023-05-18T13:13:09;25.20;49.80
46706;DHT22;33519;50.712;7.124;2023-05-18T13:15:36;25.80;50.10
46706;DHT22;33519;50.712;7.124;2023-05-18T13:18:07;26.60;48.00
46706;DHT22;33519;50.712;7.124;2023-05-18T13:20:40;26.70;46.40
46706;DHT22;33519;50.712;7.124;2023-05-18T13:23:09;26.30;46.50
46706;DHT22;33519;50.712;7.124;2023-05-18T13:25:35;27.60;46.80
46706;DHT22;33519;50.712;7.124;2023-05-18T13:28:02;26.40;46.60
46706;DHT22;33519;50.712;7.124;2023-05-18T13:30:29;26.10;48.00
46706;DHT22;33519;50.712;7.124;2023-05-18T13:32:56;26.20;47.40
46706;DHT22;33519;50.712;7.124;2023-05-18T13:35:23;26.30;47.80
46706;DHT22;33519;50.712;7.124;2023-05-18T13:37:50;27.20;46.90
46706;DHT22;33519;50.712;7.124;2023-05-18T13:40:17;28.10;46.00
46706;DHT22;33519;50.712;7.124;2023-05-18T13:42:44;28.30;45.90
46706;DHT22;33519;50.712;7.124;2023-05-18T13:45:12;27.90;46.20
46706;DHT22;33519;50.712;7.124;2023-05-18T13:47:41;27.40;47.10
46706;DHT22;33519;50.712;7.124;2023-05-18T13:50:08;27.40;47.30
46706;DHT22;33519;50.712;7.124;2023-05-18T13:52:35;27.80;45.20
46706;DHT22;33519;50.712;7.124;2023-05-18T13:55:02;28.10;47.40
46706;DHT22;33519;50.712;7.124;2023-05-18T13:57:30;28.20;45.60
46706;DHT22;33519;50.712;7.124;2023-05-18T13:59:57;28.10;45.80
46706;DHT22;33519;50.712;7.124;2023-05-18T14:02:25;28.50;46.20
46706;DHT22;33519;50.712;7.124;2023-05-18T14:04:52;29.60;45.90
46706;DHT22;33519;50.712;7.124;2023-05-18T14:07:18;30.30;44.90
46706;DHT22;33519;50.712;7.124;2023-05-18T14:09:45;29.10;43.80
46706;DHT22;33519;50.712;7.124;2023-05-18T14:12:12;28.30;44.20
46706;DHT22;33519;50.712;7.124;2023-05-18T14:14:38;29.60;43.70
46706;DHT22;33519;50.712;7.124;2023-05-18T14:17:06;30.30;42.60
46706;DHT22;33519;50.712;7.124;2023-05-18T14:19:36;31.20;41.50
46706;DHT22;33519;50.712;7.124;2023-05-18T14:22:03;32.60;41.80
46706;DHT22;33519;50.712;7.124;2023-05-18T14:24:29;32.10;40.60
46706;DHT22;33519;50.712;7.124;2023-05-18T14:26:56;31.40;40.50
46706;DHT22;33519;50.712;7.124;2023-05-18T14:29:23;31.70;41.10
46706;DHT22;33519;50.712;7.124;2023-05-18T14:31:49;32.60;41.80
46706;DHT22;33519;50.712;7.124;2023-05-18T14:34:16;33.10;40.00
46706;DHT22;33519;50.712;7.124;2023-05-18T14:36:43;31.40;39.80
46706;DHT22;33519;50.712;7.124;2023-05-18T14:39:09;31.10;41.00
46706;DHT22;33519;50.712;7.124;2023-05-18T14:41:36;31.50;41.30
46706;DHT22;33519;50.712;7.124;2023-05-18T14:44:02;32.30;40.60
46706;DHT22;33519;50.712;7.124;2023-05-18T14:46:29;31.10;40.10
46706;DHT22;33519;50.712;7.124;2023-05-18T14:48:56;31.50;40.50
46706;DHT22;33519;50.712;7.124;2023-05-18T14:51:23;29.50;41.70
46706;DHT22;33519;50.712;7.124;2023-05-18T14:53:50;25.60;43.60
46706;DHT22;33519;50.712;7.124;2023-05-18T14:56:16;27.00;45.00
46706;DHT22;33519;50.712;7.124;2023-05-18T14:58:43;26.90;44.40
46706;DHT22;33519;50.712;7.124;2023-05-18T15:01:10;27.60;43.20
46706;DHT22;33519;50.712;7.124;2023-05-18T15:03:36;27.50;43.30
46706;DHT22;33519;50.712;7.124;2023-05-18T15:06:03;29.60;42.40
46706;DHT22;33519;50.712;7.124;2023-05-18T15:08:30;31.10;41.10
46706;DHT22;33519;50.712;7.124;2023-05-18T15:10:57;30.70;41.00
46706;DHT22;33519;50.712;7.124;2023-05-18T15:13:23;30.30;41.30
46706;DHT22;33519;50.712;7.124;2023-05-18T15:15:50;31.10;41.30
46706;DHT22;33519;50.712;7.124;2023-05-18T15:18:17;31.30;41.50
46706;DHT22;33519;50.712;7.124;2023-05-18T15:20:44;29.60;41.10
46706;DHT22;33519;50.712;7.124;2023-05-18T15:23:12;30.80;40.90
46706;DHT22;33519;50.712;7.124;2023-05-18T15:25:39;27.00;42.80
46706;DHT22;33519;50.712;7.124;2023-05-18T15:28:05;25.60;45.20
46706;DHT22;33519;50.712;7.124;2023-05-18T15:30:33;26.80;43.90
46706;DHT22;33519;50.712;7.124;2023-05-18T15:32:59;27.70;42.20
46706;DHT22;33519;50.712;7.124;2023-05-18T15:35:29;26.20;44.10
46706;DHT22;33519;50.712;7.124;2023-05-18T15:37:56;27.00;44.40
46706;DHT22;33519;50.712;7.124;2023-05-18T15:40:22;29.20;43.00
46706;DHT22;33519;50.712;7.124;2023-05-18T15:42:49;30.90;42.50
46706;DHT22;33519;50.712;7.124;2023-05-18T15:45:16;32.50;40.60
46706;DHT22;33519;50.712;7.124;2023-05-18T15:47:42;32.10;40.60
46706;DHT22;33519;50.712;7.124;2023-05-18T15:50:09;30.90;42.30
46706;DHT22;33519;50.712;7.124;2023-05-18T15:52:36;30.10;41.40
46706;DHT22;33519;50.712;7.124;2023-05-18T15:55:02;29.30;41.80
46706;DHT22;33519;50.712;7.124;2023-05-18T15:57:29;27.60;42.60
46706;DHT22;33519;50.712;7.124;2023-05-18T15:59:56;25.00;44.80
46706;DHT22;33519;50.712;7.124;2023-05-18T16:02:22;25.50;46.30
46706;DHT22;33519;50.712;7.124;2023-05-18T16:04:51;27.60;43.80
46706;DHT22;33519;50.712;7.124;2023-05-18T16:07:17;28.10;43.30